Toulon, Illinois
Current Conditions -  °F | °C
As of 4:35 PM on Wednesday 22 Oct 2014 (Local Time) from KC75 Reporting Station
Clear Clear  
Wind Chill: 60°   Ceiling: Unl
Heat Index: 60°   Visibility: 10mi
Dew Point: 35°   Wind: 7mph
Humidity: 39%   Direction: 140°SE
Pressure: 30.25"   Gusts: NA
Location:  41.09°N, 89.86°W
Report Text: KC75 222135Z AUTO 14006KT 10SM CLR 16/02 A3025 RMK AO2 T01550016
Loading
Personal Weather Stations






























Interactive Weather Map
Tropical Storm Tracking
New forecast layout! Learn more

10-Day Weather Forecast

Advertisements
Track Severe Weather on mobile